Terminal Aerodrome Forecast
Issued by NWS New Orleans/Baton Rouge, LA

Home | Current Version | Previous Version | Text Only | Print | Product List | Glossary On
Versions: 1 2 3 4 5 6 7 8 9 10 11 12 13 14 15 16 17 18 19 20 21 22 23 24 25 26 27 28 29
000
FTUS44 KLIX 272320
TAFNEW
TAF
KNEW 272320Z 2800/2824 11005KT P6SM OVC250 PROB30 2815/2816 4SM
      -TSRA OVC040CB
     FM281600 11009KT P6SM OVC070 PROB30 2816/2818 4SM -TSRA
      OVC040CB
     FM281800 12011KT P6SM -SHRA VCTS OVC070CB=

USA.gov is the U.S. government's official web portal to all federal, state and local government web resources and services.